createdAt,value
2018-07-13T00:00:08.922Z,96.60
2018-07-13T00:02:37.599Z,96.80
2018-07-13T00:05:06.476Z,97.20
2018-07-13T00:07:35.137Z,97.60
2018-07-13T00:10:03.890Z,97.70
2018-07-13T00:12:32.578Z,98.00
2018-07-13T00:15:09.669Z,98.20
2018-07-13T00:17:38.399Z,98.30
2018-07-13T00:20:15.995Z,98.40
2018-07-13T00:22:44.664Z,98.60
2018-07-13T00:25:13.342Z,99.00
2018-07-13T00:27:42.014Z,99.20
2018-07-13T00:30:10.666Z,99.50
2018-07-13T00:32:39.336Z,99.90
2018-07-13T00:35:08.129Z,99.90
2018-07-13T00:37:36.776Z,99.90
2018-07-13T00:40:05.556Z,99.90
2018-07-13T00:42:34.273Z,99.90
2018-07-13T00:45:02.981Z,99.90
2018-07-13T00:47:31.643Z,99.90
2018-07-13T00:50:00.355Z,99.90
2018-07-13T00:52:29.043Z,99.90
2018-07-13T00:54:57.820Z,99.90
2018-07-13T00:57:26.488Z,99.90
2018-07-13T00:59:55.122Z,99.90
2018-07-13T01:02:23.812Z,99.90
2018-07-13T01:04:52.498Z,99.90
2018-07-13T01:07:21.158Z,99.90
2018-07-13T01:09:49.810Z,99.90
2018-07-13T01:12:18.454Z,99.90
2018-07-13T01:14:47.161Z,99.90
2018-07-13T01:17:15.932Z,99.90
2018-07-13T01:19:44.589Z,99.90
2018-07-13T01:22:13.254Z,99.90
2018-07-13T01:24:44.814Z,99.90
2018-07-13T01:27:13.494Z,99.90
2018-07-13T01:29:42.157Z,99.90
2018-07-13T01:32:10.813Z,99.90
2018-07-13T01:34:39.464Z,99.90
2018-07-13T01:37:08.121Z,99.90
2018-07-13T01:39:36.813Z,99.90
2018-07-13T01:42:05.497Z,99.90
2018-07-13T01:44:34.209Z,99.90
2018-07-13T01:47:02.846Z,99.90
2018-07-13T01:49:32.434Z,99.90
2018-07-13T01:52:01.113Z,99.90
2018-07-13T01:54:29.753Z,99.90
2018-07-13T01:56:58.423Z,99.90
2018-07-13T01:59:27.065Z,99.90
2018-07-13T02:01:55.732Z,99.90
2018-07-13T02:04:24.486Z,99.90
2018-07-13T02:06:53.285Z,99.90
2018-07-13T02:09:21.972Z,99.90
2018-07-13T02:11:50.616Z,99.90
2018-07-13T02:14:22.212Z,99.90
2018-07-13T02:16:50.905Z,99.90
2018-07-13T02:19:19.579Z,99.90
2018-07-13T02:21:48.270Z,99.90
2018-07-13T02:24:16.954Z,99.90
2018-07-13T02:26:45.569Z,99.90
2018-07-13T02:29:14.249Z,99.90
2018-07-13T02:31:42.923Z,99.90
2018-07-13T02:34:11.620Z,99.90
2018-07-13T02:36:40.304Z,99.90
2018-07-13T02:39:09.913Z,99.90
2018-07-13T02:41:38.737Z,99.90
2018-07-13T02:44:07.433Z,99.90
2018-07-13T02:46:36.101Z,99.90
2018-07-13T02:49:04.841Z,99.90
2018-07-13T02:51:33.780Z,99.90
2018-07-13T02:54:02.428Z,99.90
2018-07-13T02:56:31.097Z,99.90
2018-07-13T02:59:02.960Z,99.90
2018-07-13T03:01:31.594Z,99.90
2018-07-13T03:04:00.281Z,99.90
2018-07-13T03:06:29.004Z,99.90
2018-07-13T03:08:57.900Z,99.90
2018-07-13T03:11:26.873Z,99.90
2018-07-13T03:13:55.494Z,99.90
2018-07-13T03:16:24.187Z,99.90
2018-07-13T03:18:52.832Z,99.90
2018-07-13T03:21:21.514Z,99.90
2018-07-13T03:23:50.237Z,99.90
2018-07-13T03:26:18.956Z,99.90
2018-07-13T03:28:47.618Z,99.90
2018-07-13T03:31:16.341Z,99.90
2018-07-13T03:33:45.302Z,99.90
2018-07-13T03:36:14.040Z,99.90
2018-07-13T03:38:42.954Z,99.90
2018-07-13T03:41:11.779Z,99.90
2018-07-13T03:43:40.484Z,99.90
2018-07-13T03:46:09.508Z,99.90
2018-07-13T03:48:38.304Z,99.90
2018-07-13T03:51:07.156Z,99.90
2018-07-13T03:53:35.929Z,99.90
2018-07-13T03:56:04.854Z,99.90
2018-07-13T03:58:33.846Z,99.90
2018-07-13T04:01:02.512Z,99.90
2018-07-13T04:03:31.248Z,99.90
2018-07-13T04:05:59.899Z,99.90
2018-07-13T04:08:28.997Z,99.90
2018-07-13T04:10:57.644Z,99.90
2018-07-13T04:13:26.301Z,99.90
2018-07-13T04:15:55.032Z,99.90
2018-07-13T04:18:24.488Z,99.90
2018-07-13T04:20:53.979Z,99.90
2018-07-13T04:23:24.003Z,99.90
2018-07-13T04:25:53.807Z,99.90
2018-07-13T04:28:23.430Z,99.90
2018-07-13T04:30:52.797Z,99.90
2018-07-13T04:33:21.984Z,99.90
2018-07-13T04:35:51.171Z,99.90
2018-07-13T04:38:19.882Z,99.90
2018-07-13T04:40:48.622Z,99.90
2018-07-13T04:43:17.327Z,99.90
2018-07-13T04:45:46.127Z,99.90
2018-07-13T04:48:15.010Z,99.90
2018-07-13T04:50:43.765Z,99.90
2018-07-13T04:53:12.525Z,99.90
2018-07-13T04:55:41.688Z,99.90
2018-07-13T04:58:10.490Z,99.90
2018-07-13T05:00:39.363Z,99.90
2018-07-13T05:03:08.133Z,99.90
2018-07-13T05:05:36.908Z,99.90
2018-07-13T05:08:05.716Z,99.90
2018-07-13T05:10:34.376Z,99.90
2018-07-13T05:13:03.105Z,99.90
2018-07-13T05:15:31.780Z,99.90
2018-07-13T05:18:00.500Z,99.90
2018-07-13T05:20:29.306Z,99.90
2018-07-13T05:22:58.129Z,99.90
2018-07-13T05:25:26.910Z,99.90
2018-07-13T05:27:56.193Z,99.90
2018-07-13T05:30:25.010Z,99.90
2018-07-13T05:32:53.783Z,99.90
2018-07-13T05:35:22.623Z,99.90
2018-07-13T05:37:51.363Z,99.90
2018-07-13T05:40:20.234Z,99.90
2018-07-13T05:42:49.639Z,99.90
2018-07-13T05:45:18.436Z,99.90
2018-07-13T05:47:47.210Z,99.90
2018-07-13T05:50:16.105Z,99.90
2018-07-13T05:52:44.880Z,99.90
2018-07-13T05:55:13.676Z,99.90
2018-07-13T05:57:42.539Z,99.90
2018-07-13T06:00:11.292Z,99.90
2018-07-13T06:02:40.073Z,99.90
2018-07-13T06:05:08.894Z,99.90
2018-07-13T06:07:37.765Z,99.90
2018-07-13T06:10:06.549Z,99.90
2018-07-13T06:12:35.321Z,99.90
2018-07-13T06:15:04.186Z,99.90
2018-07-13T06:17:32.850Z,99.90
2018-07-13T06:20:01.584Z,99.90
2018-07-13T06:22:30.320Z,99.90
2018-07-13T06:24:59.044Z,99.90
2018-07-13T06:27:27.752Z,99.90
2018-07-13T06:29:56.450Z,99.90
2018-07-13T06:32:25.221Z,99.90
2018-07-13T06:34:53.963Z,99.90
2018-07-13T06:37:22.666Z,99.90
2018-07-13T06:39:51.449Z,99.90
2018-07-13T06:42:20.363Z,99.90
2018-07-13T06:44:49.111Z,99.90
2018-07-13T06:47:17.818Z,99.90
2018-07-13T06:49:46.610Z,99.90
2018-07-13T06:52:15.361Z,99.90
2018-07-13T06:54:44.113Z,99.90
2018-07-13T06:57:23.849Z,99.90
2018-07-13T06:59:52.644Z,99.90
2018-07-13T07:02:32.465Z,99.90
2018-07-13T07:06:11.037Z,99.90
2018-07-13T07:08:43.485Z,99.90
2018-07-13T07:11:12.261Z,99.90
2018-07-13T07:13:43.197Z,99.90
2018-07-13T07:16:12.028Z,99.90
2018-07-13T07:18:40.870Z,99.90
2018-07-13T07:21:09.938Z,99.90
2018-07-13T07:23:38.904Z,99.90
2018-07-13T07:26:07.673Z,99.90
2018-07-13T07:28:36.393Z,99.90
2018-07-13T07:31:05.209Z,99.90
2018-07-13T07:33:34.873Z,99.90
2018-07-13T07:36:04.376Z,99.90
2018-07-13T07:38:33.577Z,99.90
2018-07-13T07:41:02.830Z,99.90
2018-07-13T07:43:31.543Z,99.90
2018-07-13T07:46:00.341Z,99.10
2018-07-13T07:48:28.999Z,99.30
2018-07-13T07:50:57.999Z,98.60
2018-07-13T07:53:26.744Z,97.20
2018-07-13T07:55:55.379Z,97.20
2018-07-13T07:58:24.080Z,96.20
2018-07-13T08:00:52.757Z,96.90
2018-07-13T08:03:21.468Z,96.30
2018-07-13T08:05:50.156Z,96.50
2018-07-13T08:08:18.841Z,96.30
2018-07-13T08:10:47.557Z,95.20
2018-07-13T08:13:16.231Z,95.30
2018-07-13T08:15:44.928Z,94.50
2018-07-13T08:18:13.611Z,94.40
2018-07-13T08:20:46.779Z,94.30
2018-07-13T08:23:15.561Z,94.70
2018-07-13T08:25:45.888Z,94.30
2018-07-13T08:28:15.320Z,92.80
2018-07-13T08:30:45.593Z,93.50
2018-07-13T08:33:14.285Z,92.60
2018-07-13T08:35:43.252Z,92.00
2018-07-13T08:38:12.017Z,92.20
2018-07-13T08:40:40.748Z,92.10
2018-07-13T08:43:09.477Z,91.50
2018-07-13T08:45:38.158Z,91.60
2018-07-13T08:48:06.895Z,91.00
2018-07-13T08:50:35.616Z,90.50
2018-07-13T08:53:04.379Z,91.30
2018-07-13T08:55:33.168Z,91.40
2018-07-13T08:58:01.908Z,90.90
2018-07-13T09:00:30.685Z,90.80
2018-07-13T09:02:59.385Z,91.70
2018-07-13T09:05:28.090Z,91.50
2018-07-13T09:07:56.869Z,91.00
2018-07-13T09:10:25.574Z,91.20
2018-07-13T09:12:54.282Z,90.90
2018-07-13T09:15:23.054Z,91.20
2018-07-13T09:17:51.793Z,91.30
2018-07-13T09:20:20.529Z,90.60
2018-07-13T09:22:49.245Z,91.00
2018-07-13T09:25:17.897Z,90.50
2018-07-13T09:27:46.612Z,90.70
2018-07-13T09:30:15.363Z,90.20
2018-07-13T09:32:44.061Z,87.10
2018-07-13T09:35:12.814Z,86.10
2018-07-13T09:37:41.629Z,84.20
2018-07-13T09:40:10.313Z,85.30
2018-07-13T09:42:39.054Z,84.00
2018-07-13T09:45:07.784Z,82.30
2018-07-13T09:47:36.932Z,80.10
2018-07-13T09:50:05.695Z,80.80
2018-07-13T09:52:34.465Z,77.10
2018-07-13T09:55:03.235Z,75.00
2018-07-13T09:57:32.815Z,73.90
2018-07-13T10:00:01.713Z,72.30
2018-07-13T10:02:30.663Z,72.80
2018-07-13T10:04:59.637Z,72.70
2018-07-13T10:07:28.394Z,70.90
2018-07-13T10:09:57.120Z,71.00
2018-07-13T10:12:25.856Z,71.40
2018-07-13T10:14:54.641Z,71.00
2018-07-13T10:17:23.458Z,69.40
2018-07-13T10:19:52.258Z,68.40
2018-07-13T10:22:26.350Z,65.40
2018-07-13T10:24:57.059Z,64.60
2018-07-13T10:27:30.740Z,65.50
2018-07-13T10:30:00.746Z,67.70
2018-07-13T10:32:29.498Z,68.00
2018-07-13T10:34:58.265Z,67.10
2018-07-13T10:37:28.141Z,66.70
2018-07-13T10:39:56.826Z,66.00
2018-07-13T10:42:25.534Z,67.00
2018-07-13T10:44:54.194Z,65.80
2018-07-13T10:47:22.943Z,63.70
2018-07-13T10:49:51.566Z,60.50
2018-07-13T10:52:20.226Z,59.10
2018-07-13T10:54:48.896Z,57.80
2018-07-13T10:57:17.550Z,58.00
2018-07-13T10:59:46.236Z,56.30
2018-07-13T11:02:21.164Z,57.10
2018-07-13T11:04:49.816Z,56.90
2018-07-13T11:07:18.454Z,58.60
2018-07-13T11:09:47.085Z,55.60
2018-07-13T11:12:15.770Z,55.60
2018-07-13T11:14:44.400Z,55.70
2018-07-13T11:17:13.065Z,55.50
2018-07-13T11:19:41.712Z,54.20
2018-07-13T11:22:10.380Z,51.80
2018-07-13T11:24:39.046Z,52.60
2018-07-13T11:27:07.689Z,52.50
2018-07-13T11:29:36.378Z,51.80
2018-07-13T11:32:05.061Z,52.50
2018-07-13T11:34:33.718Z,53.80
2018-07-13T11:37:02.421Z,51.30
2018-07-13T11:39:31.195Z,51.30
2018-07-13T11:41:59.862Z,51.40
2018-07-13T11:44:28.508Z,52.50
2018-07-13T11:46:57.214Z,51.00
2018-07-13T11:49:25.890Z,52.00
2018-07-13T11:51:54.543Z,51.90
2018-07-13T11:54:23.206Z,52.10
2018-07-13T11:56:51.853Z,50.90
2018-07-13T11:59:20.480Z,51.20
2018-07-13T12:01:49.124Z,50.60
2018-07-13T12:04:17.798Z,50.30
2018-07-13T12:06:46.468Z,50.20
2018-07-13T12:09:15.182Z,50.80
2018-07-13T12:11:43.919Z,50.50
2018-07-13T12:14:12.593Z,50.20
2018-07-13T12:16:41.288Z,49.90
2018-07-13T12:19:09.917Z,50.60
2018-07-13T12:21:38.597Z,50.40
2018-07-13T12:24:07.269Z,50.60
2018-07-13T12:26:35.922Z,51.40
2018-07-13T12:29:04.673Z,50.80
2018-07-13T12:31:33.378Z,50.70
2018-07-13T12:34:02.035Z,50.60
2018-07-13T12:36:30.780Z,51.10
2018-07-13T12:38:59.458Z,50.20
2018-07-13T12:41:28.390Z,50.90
2018-07-13T12:43:57.052Z,52.60
2018-07-13T12:46:25.739Z,50.00
2018-07-13T12:48:54.413Z,47.30
2018-07-13T12:51:23.061Z,47.00
2018-07-13T12:53:52.342Z,46.30
2018-07-13T12:56:20.973Z,45.10
2018-07-13T12:58:49.712Z,45.00
2018-07-13T13:01:18.985Z,43.70
2018-07-13T13:03:47.764Z,42.50
2018-07-13T13:06:16.463Z,42.20
2018-07-13T13:08:45.144Z,42.20
2018-07-13T13:11:13.813Z,41.30
2018-07-13T13:13:42.465Z,40.90
2018-07-13T13:16:11.130Z,41.10
2018-07-13T13:18:39.769Z,41.10
2018-07-13T13:21:08.481Z,40.90
2018-07-13T13:23:37.146Z,40.40
2018-07-13T13:26:05.816Z,39.80
2018-07-13T13:28:34.480Z,39.20
2018-07-13T13:31:03.128Z,39.70
2018-07-13T13:33:38.271Z,39.80
2018-07-13T13:36:06.971Z,38.50
2018-07-13T13:38:35.594Z,38.60
2018-07-13T13:41:04.270Z,38.10
2018-07-13T13:43:32.930Z,38.00
2018-07-13T13:46:01.593Z,38.20
2018-07-13T13:48:30.393Z,38.30
2018-07-13T13:50:59.063Z,38.50
2018-07-13T13:53:27.695Z,38.00
2018-07-13T13:55:56.317Z,38.20
2018-07-13T13:58:24.981Z,38.60
2018-07-13T14:00:53.648Z,40.00
2018-07-13T14:03:22.314Z,40.80
2018-07-13T14:05:50.956Z,41.60
2018-07-13T14:08:19.632Z,42.70
2018-07-13T14:10:48.297Z,43.10
2018-07-13T14:13:16.948Z,43.80
2018-07-13T14:15:45.649Z,43.50
2018-07-13T14:18:14.277Z,43.10
2018-07-13T14:20:42.979Z,43.80
2018-07-13T14:23:11.659Z,43.20
2018-07-13T14:25:40.335Z,42.00
2018-07-13T14:28:09.006Z,39.70
2018-07-13T14:30:37.652Z,39.20
2018-07-13T14:33:06.398Z,38.90
2018-07-13T14:35:35.035Z,37.80
2018-07-13T14:38:03.757Z,36.50
2018-07-13T14:40:32.509Z,37.30
2018-07-13T14:43:01.243Z,38.10
2018-07-13T14:45:29.897Z,36.50
2018-07-13T14:47:58.553Z,35.80
2018-07-13T14:50:27.224Z,36.10
2018-07-13T14:52:55.873Z,36.40
2018-07-13T14:55:24.534Z,36.10
2018-07-13T14:57:53.200Z,37.00
2018-07-13T15:00:21.901Z,38.40
2018-07-13T15:02:50.923Z,38.80
2018-07-13T15:05:19.581Z,39.50
2018-07-13T15:07:48.249Z,40.10
2018-07-13T15:10:16.997Z,40.90
2018-07-13T15:12:45.658Z,41.30
2018-07-13T15:15:14.314Z,42.30
2018-07-13T15:17:43.041Z,43.00
2018-07-13T15:20:11.699Z,42.90
2018-07-13T15:22:40.370Z,43.80
2018-07-13T15:25:09.062Z,42.70
2018-07-13T15:27:37.724Z,42.60
2018-07-13T15:30:06.450Z,43.00
2018-07-13T15:32:35.196Z,43.30
2018-07-13T15:35:03.910Z,44.70
2018-07-13T15:37:32.588Z,45.10
2018-07-13T15:40:01.235Z,43.80
2018-07-13T15:42:30.843Z,42.80
2018-07-13T15:44:59.514Z,42.10
2018-07-13T15:47:28.468Z,42.50
2018-07-13T15:49:57.129Z,42.50
2018-07-13T15:52:25.838Z,40.90
2018-07-13T15:54:54.463Z,42.50
2018-07-13T15:57:23.148Z,43.30
2018-07-13T15:59:51.822Z,42.90
2018-07-13T16:02:20.479Z,43.30
2018-07-13T16:04:49.177Z,42.30
2018-07-13T16:07:17.849Z,43.20
2018-07-13T16:09:46.533Z,44.70
2018-07-13T16:12:15.221Z,46.30
2018-07-13T16:14:43.941Z,47.70
2018-07-13T16:17:12.638Z,48.90
2018-07-13T16:19:41.288Z,49.60
2018-07-13T16:22:10.007Z,50.00
2018-07-13T16:24:38.840Z,50.30
2018-07-13T16:27:07.489Z,50.00
2018-07-13T16:29:36.152Z,50.00
2018-07-13T16:32:04.910Z,49.90
2018-07-13T16:34:33.577Z,49.50
2018-07-13T16:37:02.246Z,49.30
2018-07-13T16:39:31.036Z,49.50
2018-07-13T16:41:59.785Z,49.30
2018-07-13T16:44:29.384Z,49.60
2018-07-13T16:47:05.641Z,49.70
2018-07-13T16:49:34.288Z,47.70
2018-07-13T16:52:02.970Z,45.90
2018-07-13T16:54:31.613Z,45.10
2018-07-13T16:57:00.477Z,44.20
2018-07-13T16:59:29.136Z,43.50
2018-07-13T17:01:57.821Z,42.40
2018-07-13T17:04:26.503Z,41.80
2018-07-13T17:06:55.185Z,41.40
2018-07-13T17:09:23.910Z,42.90
2018-07-13T17:11:52.751Z,43.60
2018-07-13T17:14:21.461Z,44.10
2018-07-13T17:16:50.339Z,44.20
2018-07-13T17:19:19.029Z,44.00
2018-07-13T17:21:48.173Z,44.10
2018-07-13T17:24:17.125Z,44.60
2018-07-13T17:26:45.904Z,45.10
2018-07-13T17:29:14.525Z,45.50
2018-07-13T17:31:43.236Z,45.90
2018-07-13T17:34:11.922Z,45.70
2018-07-13T17:36:40.644Z,45.70
2018-07-13T17:39:09.392Z,46.20
2018-07-13T17:41:38.092Z,46.20
2018-07-13T17:44:06.850Z,47.20
2018-07-13T17:46:35.478Z,47.80
2018-07-13T17:49:04.113Z,48.50
2018-07-13T17:51:32.795Z,48.70
2018-07-13T17:54:01.444Z,48.90
2018-07-13T17:56:30.148Z,49.10
2018-07-13T17:58:59.088Z,49.40
2018-07-13T18:01:27.807Z,50.60
2018-07-13T18:03:56.461Z,50.10
2018-07-13T18:06:25.125Z,49.30
2018-07-13T18:08:53.809Z,49.00
2018-07-13T18:11:22.525Z,49.60
2018-07-13T18:13:51.219Z,49.60
2018-07-13T18:16:19.939Z,51.80
2018-07-13T18:18:48.605Z,52.70
2018-07-13T18:21:17.278Z,53.60
2018-07-13T18:23:46.805Z,53.30
2018-07-13T18:26:15.488Z,53.20
2018-07-13T18:28:44.114Z,53.40
2018-07-13T18:31:12.802Z,52.70
2018-07-13T18:33:42.561Z,52.30
2018-07-13T18:36:11.243Z,51.40
2018-07-13T18:38:40.348Z,50.70
2018-07-13T18:41:09.021Z,50.40
2018-07-13T18:43:37.689Z,50.40
2018-07-13T18:46:06.489Z,50.40
2018-07-13T18:48:35.184Z,51.10
2018-07-13T18:51:03.917Z,50.50
2018-07-13T18:53:32.573Z,52.40
2018-07-13T18:56:01.226Z,54.80
2018-07-13T18:58:29.897Z,57.80
2018-07-13T19:03:26.881Z,58.40
2018-07-13T19:05:55.567Z,60.30
2018-07-13T19:08:24.232Z,60.70
2018-07-13T19:10:54.451Z,61.00
2018-07-13T19:13:23.311Z,61.80
2018-07-13T19:15:51.997Z,61.60
2018-07-13T19:18:20.685Z,61.30
2018-07-13T19:20:49.338Z,61.40
2018-07-13T19:23:18.028Z,61.60
2018-07-13T19:25:46.701Z,61.90
2018-07-13T19:28:15.386Z,61.60
2018-07-13T19:30:44.097Z,61.90
2018-07-13T19:33:12.752Z,62.80
2018-07-13T19:35:41.614Z,64.20
2018-07-13T19:38:10.277Z,69.80
2018-07-13T19:40:38.960Z,71.10
2018-07-13T19:43:09.821Z,73.10
2018-07-13T19:45:38.518Z,76.50
2018-07-13T19:48:07.321Z,82.90
2018-07-13T19:50:36.162Z,90.10
2018-07-13T19:53:04.941Z,92.60
2018-07-13T19:55:33.702Z,94.80
2018-07-13T19:58:02.358Z,95.90
2018-07-13T20:00:31.041Z,97.30
2018-07-13T20:02:59.876Z,98.20
2018-07-13T20:05:28.542Z,98.70
2018-07-13T20:07:57.247Z,99.30
2018-07-13T20:10:25.901Z,99.90
2018-07-13T20:12:54.652Z,99.90
2018-07-13T20:15:23.360Z,99.90
2018-07-13T20:17:52.049Z,99.90
2018-07-13T20:20:20.797Z,99.90
2018-07-13T20:22:49.461Z,99.90
2018-07-13T20:25:18.238Z,99.90
2018-07-13T20:27:46.900Z,99.90
2018-07-13T20:30:15.547Z,99.90
2018-07-13T20:32:44.221Z,99.90
2018-07-13T20:35:12.881Z,99.90
2018-07-13T20:37:41.599Z,99.90
2018-07-13T20:40:10.258Z,99.90
2018-07-13T20:42:38.966Z,99.90
2018-07-13T20:45:07.709Z,99.90
2018-07-13T20:47:36.403Z,99.90
2018-07-13T20:50:05.106Z,99.90
2018-07-13T20:52:33.891Z,99.90
2018-07-13T20:55:02.525Z,99.90
2018-07-13T20:57:31.202Z,99.90
2018-07-13T20:59:59.862Z,99.90
2018-07-13T21:02:29.175Z,99.90
2018-07-13T21:04:57.851Z,99.90
2018-07-13T21:07:26.501Z,99.90
2018-07-13T21:09:55.213Z,99.90
2018-07-13T21:12:23.894Z,99.90
2018-07-13T21:14:52.534Z,99.90
2018-07-13T21:17:21.227Z,99.90
2018-07-13T21:19:49.948Z,99.90
2018-07-13T21:22:18.568Z,99.90
2018-07-13T21:24:47.256Z,99.90
2018-07-13T21:27:15.973Z,99.90
2018-07-13T21:29:44.717Z,99.90
2018-07-13T21:32:13.384Z,99.90
2018-07-13T21:34:42.060Z,99.90
2018-07-13T21:37:10.725Z,99.90
2018-07-13T21:39:39.404Z,99.90
2018-07-13T21:42:08.236Z,99.90
2018-07-13T21:44:36.903Z,99.90
2018-07-13T21:49:33.995Z,99.90
2018-07-13T21:52:02.711Z,99.90
2018-07-13T21:54:31.362Z,99.90
2018-07-13T21:57:00.028Z,99.90
2018-07-13T21:59:28.668Z,99.90
2018-07-13T22:01:57.409Z,99.90
2018-07-13T22:04:26.103Z,99.90
2018-07-13T22:06:55.406Z,99.90
2018-07-13T22:09:24.045Z,99.90
2018-07-13T22:11:52.701Z,99.90
2018-07-13T22:14:21.365Z,99.90
2018-07-13T22:16:50.017Z,99.90
2018-07-13T22:19:18.793Z,99.90
2018-07-13T22:21:47.466Z,99.90
2018-07-13T22:24:16.115Z,99.90
2018-07-13T22:26:44.790Z,99.90
2018-07-13T22:29:13.428Z,99.90
2018-07-13T22:31:42.126Z,99.90
2018-07-13T22:34:10.830Z,99.90
2018-07-13T22:36:39.490Z,99.90
2018-07-13T22:39:08.154Z,99.90
2018-07-13T22:41:36.833Z,99.90
2018-07-13T22:44:05.530Z,99.90
2018-07-13T22:46:34.192Z,99.90
2018-07-13T22:49:02.850Z,99.90
2018-07-13T22:51:31.530Z,99.90
2018-07-13T22:54:00.177Z,99.90
2018-07-13T22:56:29.013Z,99.90
2018-07-13T22:58:57.709Z,99.90
2018-07-13T23:01:26.359Z,99.90
2018-07-13T23:03:55.030Z,99.90
2018-07-13T23:06:23.680Z,99.90
2018-07-13T23:08:52.368Z,99.90
2018-07-13T23:11:21.045Z,99.90
2018-07-13T23:13:50.026Z,99.90
2018-07-13T23:16:18.705Z,99.90
2018-07-13T23:18:47.365Z,99.90
2018-07-13T23:21:16.030Z,99.90
2018-07-13T23:23:44.743Z,99.90
2018-07-13T23:26:13.389Z,99.90
2018-07-13T23:28:42.063Z,99.90
2018-07-13T23:31:10.761Z,99.90
2018-07-13T23:33:39.439Z,99.90
2018-07-13T23:36:08.112Z,99.90
2018-07-13T23:38:36.757Z,99.90
2018-07-13T23:41:05.465Z,99.90
2018-07-13T23:43:34.113Z,99.90
2018-07-13T23:46:02.795Z,99.90
2018-07-13T23:48:31.436Z,99.90
2018-07-13T23:51:00.082Z,99.90
2018-07-13T23:53:28.799Z,99.90
2018-07-13T23:55:57.514Z,99.90
2018-07-13T23:58:26.214Z,99.90
